X  Fechar Dados meteorológicos de METAR da aviação     LYNI Nis Airport
Temperatura
23°C Temperatura
16°C Ponto de orvalho
65% Umidade



Vento
4 M/S
8 MPH
13 KM/H
7 NÓS



180°
S
Condições atuais

Nuvens esparsas Nuvens esparsas
Pressão 1000.92 (hPa) - 29.56 (inHg)
Visibilidade 6.2 (milha) - 10 (km)
Aeroporto
Código do aeroporto LYNI

Localização: Nis Airport
Distância: 63 (km)

Metar:
LYNI 271300Z 18007KT 110V230 9999 SCT033 23/16 Q1001 NOSIG

Hora: 27-09-2022 15:00 CEST